Time;durP1;ratioP1;P1;durP2;ratioP2;P2;SDS_P1;SDS_P2;PMS_P1;PMS_P2;Temp;Humidity;BMP_temperature;BMP_pressure;BME280_temperature;BME280_humidity;BME280_pressure;Samples;Min_cycle;Max_cycle;Signal;HPM_P1;HPM_P2
2021/08/13 00:00:58;;;;;;;29.85;12.73;;;;;;;22.42;87.46;96620.28;4974929;28;20219;-68
2021/08/13 00:03:25;;;;;;;22.55;12.93;;;;;;;22.34;89.18;96629.53;4974915;28;20303;-68
2021/08/13 00:05:53;;;;;;;25.20;12.85;;;;;;;22.59;89.50;96637.22;4975115;28;20226;-68
2021/08/13 00:08:19;;;;;;;23.90;13.85;;;;;;;22.33;91.83;96654.75;4974107;28;20210;-68
2021/08/13 00:10:46;;;;;;;25.20;13.50;;;;;;;22.44;91.26;96661.97;4974484;28;20219;-68
2021/08/13 00:13:12;;;;;;;23.73;13.05;;;;;;;22.49;91.11;96675.47;4975258;28;20699;-68
2021/08/13 00:15:39;;;;;;;30.05;13.93;;;;;;;22.64;90.08;96683.81;4974111;28;20200;-68
2021/08/13 00:18:05;;;;;;;25.50;13.50;;;;;;;22.66;89.92;96687.09;4975104;28;20215;-68
2021/08/13 00:20:34;;;;;;;23.60;13.20;;;;;;;22.73;88.91;96693.94;4975108;28;20210;-68
2021/08/13 00:23:02;;;;;;;27.98;13.35;;;;;;;22.77;88.59;96675.44;4974901;28;20227;-68
2021/08/13 00:25:29;;;;;;;23.80;13.23;;;;;;;22.66;89.05;96673.66;4973115;28;20242;-68
2021/08/13 00:27:55;;;;;;;24.48;13.27;;;;;;;22.84;87.92;96674.25;4974471;28;20210;-68
2021/08/13 00:30:22;;;;;;;22.02;13.00;;;;;;;22.77;88.14;96672.75;4974770;28;20203;-68
2021/08/13 00:32:48;;;;;;;27.85;13.27;;;;;;;22.65;88.02;96663.94;4974391;28;20223;-68
2021/08/13 00:35:15;;;;;;;23.25;12.48;;;;;;;22.40;88.81;96658.13;4974006;28;20207;-68
2021/08/13 00:37:42;;;;;;;21.50;13.35;;;;;;;22.67;88.31;96651.09;4974570;28;20203;-68
2021/08/13 00:40:11;;;;;;;24.30;13.95;;;;;;;22.71;88.27;96661.09;4971573;28;20207;-68
2021/08/13 00:42:37;;;;;;;21.48;13.07;;;;;;;22.53;87.94;96648.94;4973602;28;20227;-68
2021/08/13 00:45:04;;;;;;;27.33;14.43;;;;;;;22.71;87.29;96653.03;4974613;28;20223;-68
2021/08/13 00:47:31;;;;;;;25.35;14.90;;;;;;;22.47;88.09;96656.09;4974130;28;20703;-68
2021/08/13 00:49:57;;;;;;;22.48;13.35;;;;;;;22.60;87.04;96646.94;4974312;28;20710;-68
2021/08/13 00:52:24;;;;;;;25.42;13.48;;;;;;;22.52;87.09;96650.00;4974218;28;20210;-68
2021/08/13 00:54:51;;;;;;;22.58;13.68;;;;;;;22.06;88.10;96653.66;4974117;28;20211;-68
2021/08/13 00:57:19;;;;;;;26.20;14.38;;;;;;;22.33;87.43;96659.31;4973588;28;20203;-68
2021/08/13 00:59:45;;;;;;;26.67;15.10;;;;;;;22.09;89.07;96666.56;4973581;28;20211;-68
2021/08/13 01:02:12;;;;;;;27.20;13.50;;;;;;;21.98;89.34;96663.13;4973690;28;20207;-68
2021/08/13 01:04:39;;;;;;;22.52;13.35;;;;;;;21.74;88.54;96654.31;4974378;28;20266;-68
2021/08/13 01:07:07;;;;;;;27.35;14.07;;;;;;;21.72;90.50;96656.41;4973452;28;20203;-68
2021/08/13 01:09:34;;;;;;;29.50;14.75;;;;;;;21.40;92.72;96656.16;4974574;28;20208;-68
2021/08/13 01:12:02;;;;;;;35.15;15.65;;;;;;;21.52;93.63;96655.13;4974127;28;20219;-68
2021/08/13 01:14:41;;;;;;;29.83;15.05;;;;;;;21.72;91.99;96661.75;4973999;28;20216;-68
2021/08/13 01:17:09;;;;;;;29.13;13.75;;;;;;;21.50;92.36;96662.59;4974311;28;20207;-68
2021/08/13 01:19:48;;;;;;;23.60;12.85;;;;;;;21.69;91.50;96674.81;4976632;28;20581;-68
2021/08/13 01:22:20;;;;;;;21.90;12.93;;;;;;;21.69;90.84;96677.50;4977211;28;20230;-68
2021/08/13 01:24:48;;;;;;;26.77;13.00;;;;;;;21.62;90.50;96680.31;4977871;28;20711;-68
2021/08/13 01:27:19;;;;;;;21.85;13.38;;;;;;;21.62;90.42;96677.63;4976881;28;20218;-68
2021/08/13 01:29:53;;;;;;;27.60;13.35;;;;;;;21.70;90.31;96684.50;4977431;28;20211;-68
2021/08/13 01:32:33;;;;;;;28.45;12.95;;;;;;;21.59;91.05;96688.84;4976608;28;20566;-68
2021/08/13 01:35:02;;;;;;;26.92;12.55;;;;;;;21.58;90.16;96681.03;4977581;28;20207;-68
2021/08/13 01:37:31;;;;;;;24.00;12.63;;;;;;;21.65;89.30;96684.41;4976199;28;20211;-68
2021/08/13 01:40:01;;;;;;;27.92;12.85;;;;;;;21.68;89.51;96689.31;4976370;28;20214;-68
2021/08/13 01:42:29;;;;;;;22.80;13.07;;;;;;;21.59;90.10;96685.34;4976127;28;20574;-68
2021/08/13 01:44:58;;;;;;;23.15;12.65;;;;;;;21.62;90.56;96691.03;4977287;28;20238;-68
2021/08/13 01:47:27;;;;;;;23.92;13.82;;;;;;;21.66;90.82;96683.34;4976357;28;20415;-68
2021/08/13 01:49:54;;;;;;;23.40;13.73;;;;;;;21.65;91.13;96687.06;4977283;28;21019;-68
2021/08/13 01:52:21;;;;;;;23.90;13.60;;;;;;;21.64;91.37;96680.91;4976569;28;20199;-68
2021/08/13 01:54:49;;;;;;;21.73;13.48;;;;;;;21.63;90.87;96689.19;4976282;28;20212;-68
2021/08/13 01:57:15;;;;;;;29.50;15.23;;;;;;;21.16;94.73;96692.06;4976186;28;20295;-68
2021/08/13 01:59:42;;;;;;;24.27;15.02;;;;;;;21.44;93.45;96690.34;4976837;28;20203;-68
2021/08/13 02:02:09;;;;;;;27.90;14.73;;;;;;;21.41;93.01;96693.50;4976406;28;20211;-68
2021/08/13 02:04:40;;;;;;;25.42;14.75;;;;;;;21.42;93.97;96697.78;4976938;28;20223;-68
2021/08/13 02:07:06;;;;;;;26.33;15.10;;;;;;;21.39;93.73;96695.56;4975780;28;20207;-68
2021/08/13 02:09:35;;;;;;;23.23;13.90;;;;;;;21.51;93.34;96691.03;4976430;28;20204;-68
2021/08/13 02:12:01;;;;;;;26.15;15.10;;;;;;;21.48;92.88;96691.50;4976368;28;20207;-68
2021/08/13 02:14:28;;;;;;;26.00;14.65;;;;;;;21.65;92.02;96698.66;4976828;28;20222;-68
2021/08/13 02:16:56;;;;;;;25.85;13.70;;;;;;;21.74;92.20;96688.34;4976001;28;20211;-68
2021/08/13 02:19:26;;;;;;;20.88;13.57;;;;;;;21.71;92.29;96680.78;4976324;28;20660;-68
2021/08/13 02:21:54;;;;;;;24.60;14.05;;;;;;;21.80;92.17;96668.63;4976440;28;20204;-68
2021/08/13 02:24:20;;;;;;;26.23;15.05;;;;;;;21.70;92.40;96671.94;4975836;28;20223;-68
2021/08/13 02:26:48;;;;;;;26.42;14.80;;;;;;;21.81;91.98;96665.72;4975802;28;20233;-68
2021/08/13 02:29:14;;;;;;;33.22;15.55;;;;;;;21.80;92.21;96661.41;4976417;28;20207;-68
2021/08/13 02:31:41;;;;;;;25.15;14.70;;;;;;;21.81;91.63;96660.34;4976136;28;20211;-68
2021/08/13 02:34:08;;;;;;;26.20;13.77;;;;;;;21.81;91.37;96662.22;4976475;28;20235;-68
2021/08/13 02:36:41;;;;;;;27.38;14.02;;;;;;;21.90;91.10;96663.50;4976537;28;20211;-68
2021/08/13 02:39:14;;;;;;;29.63;15.85;;;;;;;21.92;91.50;96678.31;4972055;28;20211;-68
2021/08/13 02:41:43;;;;;;;26.90;15.18;;;;;;;21.73;92.75;96695.59;4973410;28;20598;-68
2021/08/13 02:44:12;;;;;;;33.38;15.52;;;;;;;21.78;92.96;96693.03;4976234;28;20223;-68
2021/08/13 02:46:45;;;;;;;35.90;17.02;;;;;;;21.68;94.39;96683.94;4975003;28;20219;-68
2021/08/13 02:49:13;;;;;;;31.17;16.13;;;;;;;21.77;93.67;96695.94;4976222;28;20266;-68
2021/08/13 02:51:42;;;;;;;30.40;16.48;;;;;;;21.81;93.20;96689.06;4976224;28;20580;-68
2021/08/13 02:54:15;;;;;;;25.08;15.85;;;;;;;21.87;93.15;96686.25;4975404;28;20234;-68
2021/08/13 02:56:42;;;;;;;30.15;15.93;;;;;;;21.82;92.74;96683.44;4975095;28;20211;-68
2021/08/13 02:59:11;;;;;;;37.28;16.65;;;;;;;21.74;93.35;96673.09;4975358;28;20679;-68
2021/08/13 03:01:40;;;;;;;31.38;17.38;;;;;;;21.67;93.94;96674.25;4976091;28;20200;-68
2021/08/13 03:04:10;;;;;;;28.23;16.00;;;;;;;21.71;93.75;96670.06;4975915;28;20242;-68
2021/08/13 03:06:39;;;;;;;30.95;16.85;;;;;;;21.82;93.06;96671.91;4975155;28;20591;-68
2021/08/13 03:09:08;;;;;;;31.95;16.23;;;;;;;21.71;93.41;96670.84;4975844;28;20234;-68
2021/08/13 03:11:39;;;;;;;29.42;16.58;;;;;;;21.85;92.98;96669.56;4975605;28;20207;-68
2021/08/13 03:14:05;;;;;;;32.25;15.07;;;;;;;21.71;93.20;96678.09;4975908;28;20227;-68
2021/08/13 03:16:34;;;;;;;33.92;15.75;;;;;;;21.87;92.61;96675.50;4975098;28;20206;-68
2021/08/13 03:19:01;;;;;;;29.55;15.88;;;;;;;21.77;92.74;96671.81;4975652;28;20199;-68
2021/08/13 03:21:29;;;;;;;31.60;16.52;;;;;;;21.86;92.21;96673.06;4975726;28;21217;-68
2021/08/13 03:23:56;;;;;;;33.22;16.52;;;;;;;21.64;93.34;96672.88;4975356;28;20234;-68
2021/08/13 03:26:26;;;;;;;26.10;15.25;;;;;;;21.62;93.77;96684.88;4974361;28;20227;-68
2021/08/13 03:28:54;;;;;;;27.38;15.13;;;;;;;21.67;93.36;96679.63;4975292;28;20243;-68
2021/08/13 03:31:34;;;;;;;25.52;14.63;;;;;;;21.62;92.90;96688.34;4975707;28;20207;-68
2021/08/13 03:34:02;;;;;;;28.48;15.68;;;;;;;21.59;92.29;96683.47;4974788;28;20233;-68
2021/08/13 03:36:28;;;;;;;26.10;14.75;;;;;;;21.55;92.16;96690.38;4974850;28;20207;-68
2021/08/13 03:38:55;;;;;;;23.85;14.38;;;;;;;21.52;91.90;96695.38;4975635;28;20572;-68
2021/08/13 03:41:21;;;;;;;22.00;14.88;;;;;;;21.50;91.43;96700.13;4972375;28;20207;-68
2021/08/13 03:43:48;;;;;;;26.60;14.85;;;;;;;21.36;92.15;96704.09;4975566;28;20223;-68
2021/08/13 03:46:16;;;;;;;23.85;14.15;;;;;;;21.37;92.24;96710.25;4975513;28;20483;-68
2021/08/13 03:48:42;;;;;;;23.17;14.60;;;;;;;21.19;92.49;96708.47;4974750;28;20207;-68
2021/08/13 03:51:09;;;;;;;24.48;14.60;;;;;;;21.36;91.68;96708.63;4974767;28;20215;-68
2021/08/13 03:53:35;;;;;;;25.60;14.52;;;;;;;21.30;92.21;96707.69;4975841;28;20219;-68
2021/08/13 03:56:01;;;;;;;22.17;14.68;;;;;;;21.26;92.74;96709.19;4974444;28;20203;-67
2021/08/13 03:58:28;;;;;;;26.35;15.18;;;;;;;21.40;92.41;96705.25;4975001;28;20218;-67
2021/08/13 04:00:54;;;;;;;26.77;13.85;;;;;;;21.48;91.79;96712.94;4975230;28;20207;-67
2021/08/13 04:03:22;;;;;;;25.42;15.48;;;;;;;21.45;92.86;96719.59;4974719;28;20223;-68
2021/08/13 04:05:48;;;;;;;23.05;14.65;;;;;;;21.37;93.52;96716.41;4973720;28;20227;-68
2021/08/13 04:08:15;;;;;;;22.67;14.93;;;;;;;21.39;93.58;96725.06;4974972;28;20220;-67
2021/08/13 04:10:41;;;;;;;23.85;15.15;;;;;;;21.42;93.07;96716.53;4974429;28;20687;-68
2021/08/13 04:13:08;;;;;;;27.67;15.23;;;;;;;21.43;93.00;96716.34;4975127;28;20227;-68
2021/08/13 04:15:35;;;;;;;26.50;14.50;;;;;;;21.50;92.94;96716.22;4974034;28;20210;-68
2021/08/13 04:18:01;;;;;;;24.25;15.02;;;;;;;21.47;93.05;96711.31;4975089;28;20207;-67
2021/08/13 04:20:29;;;;;;;23.85;14.40;;;;;;;21.65;92.76;96703.16;4975142;28;20218;-68
2021/08/13 04:22:55;;;;;;;25.55;14.90;;;;;;;21.56;92.77;96704.56;4974716;28;20235;-68
2021/08/13 04:25:22;;;;;;;27.60;14.40;;;;;;;21.59;92.39;96712.19;4974078;28;21048;-67
2021/08/13 04:27:48;;;;;;;23.38;14.50;;;;;;;21.51;93.08;96709.81;4974796;28;20234;-67
2021/08/13 04:30:15;;;;;;;24.08;14.35;;;;;;;21.61;92.82;96704.69;4975230;28;20587;-67
2021/08/13 04:32:42;;;;;;;24.65;14.10;;;;;;;21.68;93.00;96710.78;4974087;28;20238;-67
2021/08/13 04:35:10;;;;;;;23.27;13.75;;;;;;;21.63;93.32;96716.03;4974971;28;20207;-67
2021/08/13 04:37:37;;;;;;;22.42;14.23;;;;;;;21.74;92.43;96725.91;4973955;28;20698;-67
2021/08/13 04:40:05;;;;;;;22.70;13.63;;;;;;;21.77;91.83;96728.94;4972339;28;20214;-68
2021/08/13 04:42:32;;;;;;;23.27;13.20;;;;;;;21.69;92.99;96732.00;4974435;28;20203;-68
2021/08/13 04:44:58;;;;;;;21.92;13.20;;;;;;;21.79;92.39;96740.28;4975013;28;20217;-68
2021/08/13 04:47:25;;;;;;;20.30;12.70;;;;;;;22.00;91.06;96739.66;4972262;28;20230;-67
2021/08/13 04:49:51;;;;;;;24.63;12.95;;;;;;;22.02;91.21;96731.38;4975731;28;20219;-67
2021/08/13 04:52:18;;;;;;;21.08;12.38;;;;;;;22.20;89.79;96732.88;4973879;28;20208;-67
2021/08/13 04:54:47;;;;;;;21.73;13.05;;;;;;;22.35;89.84;96740.44;4976004;28;20229;-68
2021/08/13 04:57:13;;;;;;;20.00;12.73;;;;;;;22.16;90.29;96737.09;4977084;28;20211;-67
2021/08/13 04:59:40;;;;;;;21.52;12.55;;;;;;;22.07;91.22;96746.56;4978965;28;20210;-67
2021/08/13 05:02:06;;;;;;;21.80;11.07;;;;;;;22.29;89.86;96744.91;4977867;28;20212;-67
2021/08/13 05:04:33;;;;;;;21.83;11.75;;;;;;;22.49;88.94;96744.50;4978337;28;20227;-67
2021/08/13 05:06:59;;;;;;;18.13;11.30;;;;;;;22.58;88.48;96753.81;4976944;28;20238;-67
2021/08/13 05:09:26;;;;;;;17.90;12.13;;;;;;;22.57;88.04;96761.06;4977144;28;20206;-68
2021/08/13 05:11:53;;;;;;;22.55;12.00;;;;;;;22.70;89.23;96763.47;4978508;28;21137;-67
2021/08/13 05:14:20;;;;;;;22.08;11.32;;;;;;;22.31;89.92;96758.09;4977444;28;20223;-67
2021/08/13 05:16:46;;;;;;;17.45;10.70;;;;;;;22.38;89.95;96759.59;4976612;28;21118;-67
2021/08/13 05:19:13;;;;;;;21.48;11.60;;;;;;;22.74;88.46;96754.66;4978003;28;20203;-67
2021/08/13 05:21:40;;;;;;;20.35;11.98;;;;;;;22.82;88.47;96750.78;4978040;28;20203;-67
2021/08/13 05:24:07;;;;;;;19.70;11.82;;;;;;;22.91;88.98;96750.19;4976959;28;20230;-67
2021/08/13 05:26:33;;;;;;;19.75;10.65;;;;;;;22.94;87.75;96748.88;4976649;28;20230;-67
2021/08/13 05:29:01;;;;;;;21.38;12.13;;;;;;;22.71;89.45;96759.72;4978043;28;20207;-67
2021/08/13 05:31:28;;;;;;;19.13;11.38;;;;;;;22.65;89.27;96763.38;4977350;28;20207;-67
2021/08/13 05:33:54;;;;;;;20.48;12.30;;;;;;;22.76;89.43;96773.28;4977116;28;20224;-67
2021/08/13 05:36:20;;;;;;;21.95;12.07;;;;;;;23.09;86.83;96771.50;4976921;28;20203;-67
2021/08/13 05:38:47;;;;;;;17.67;11.10;;;;;;;23.40;86.21;96766.41;4976948;28;20219;-67
2021/08/13 05:41:13;;;;;;;18.95;12.25;;;;;;;23.24;87.95;96768.28;4974985;28;20195;-67
2021/08/13 05:43:40;;;;;;;19.23;12.38;;;;;;;23.19;88.00;96768.19;4977078;28;20234;-67
2021/08/13 05:46:07;;;;;;;20.23;11.43;;;;;;;23.43;88.12;96771.31;4976523;28;20703;-67
2021/08/13 05:48:34;;;;;;;23.98;12.10;;;;;;;23.08;89.16;96771.75;4977128;28;20200;-67
2021/08/13 05:51:00;;;;;;;19.65;11.77;;;;;;;23.09;89.14;96773.38;4977344;28;20215;-67
2021/08/13 05:53:27;;;;;;;20.73;12.30;;;;;;;23.10;89.32;96780.38;4976613;28;20224;-68
2021/08/13 05:55:53;;;;;;;22.90;11.95;;;;;;;23.11;88.75;96787.41;4976582;28;20203;-68
2021/08/13 05:58:19;;;;;;;25.52;12.88;;;;;;;23.20;88.94;96786.75;4976682;28;20711;-68
2021/08/13 06:00:46;;;;;;;17.38;10.70;;;;;;;23.44;85.92;96783.69;4977132;28;20679;-68
2021/08/13 06:03:14;;;;;;;17.08;11.57;;;;;;;23.52;87.75;96777.94;4976709;28;20237;-68
2021/08/13 06:05:40;;;;;;;21.52;11.85;;;;;;;23.58;87.04;96779.63;4975393;28;20199;-69
2021/08/13 06:08:06;;;;;;;20.30;11.50;;;;;;;23.68;84.86;96774.41;4976983;28;20227;-68
2021/08/13 06:10:33;;;;;;;20.40;11.98;;;;;;;23.45;88.75;96785.31;4976737;28;20211;-69
2021/08/13 06:12:59;;;;;;;21.35;11.50;;;;;;;23.71;87.30;96782.00;4976560;28;20234;-68
2021/08/13 06:15:26;;;;;;;17.48;10.15;;;;;;;23.83;84.73;96782.75;4975956;28;20203;-69
2021/08/13 06:17:52;;;;;;;18.38;12.05;;;;;;;23.93;85.76;96793.69;4976507;28;20203;-69
2021/08/13 06:20:22;;;;;;;20.65;11.30;;;;;;;24.05;84.52;96786.31;4976323;28;20200;-69
2021/08/13 06:22:49;;;;;;;17.00;10.95;;;;;;;23.78;85.89;96779.97;4976806;28;20231;-69
2021/08/13 06:25:15;;;;;;;17.48;10.88;;;;;;;24.02;85.17;96787.63;4976096;28;20813;-68
2021/08/13 06:27:43;;;;;;;19.38;10.50;;;;;;;24.18;85.67;96788.66;4976505;28;20227;-69
2021/08/13 06:30:12;;;;;;;18.05;10.57;;;;;;;24.39;84.26;96782.50;4976693;28;20207;-69
2021/08/13 06:32:38;;;;;;;22.02;10.30;;;;;;;24.24;85.34;96780.41;4976765;28;20223;-70
2021/08/13 06:35:05;;;;;;;16.33;10.68;;;;;;;24.43;84.30;96776.38;4976139;28;20203;-69
2021/08/13 06:37:33;;;;;;;16.85;10.25;;;;;;;24.70;83.58;96779.94;4975687;28;20206;-69
2021/08/13 06:40:00;;;;;;;17.60;10.07;;;;;;;24.60;84.56;96786.03;4975574;28;20204;-70
2021/08/13 06:42:26;;;;;;;20.23;10.75;;;;;;;24.48;84.94;96781.84;4974834;28;20690;-70
2021/08/13 06:44:53;;;;;;;18.15;9.93;;;;;;;24.59;85.25;96780.88;4975664;28;20274;-69
2021/08/13 06:47:20;;;;;;;18.75;11.20;;;;;;;24.67;85.18;96783.97;4975863;28;20223;-70
2021/08/13 06:49:46;;;;;;;17.83;10.13;;;;;;;24.81;84.56;96781.72;4976447;28;20298;-67
2021/08/13 06:52:13;;;;;;;18.20;9.48;;;;;;;24.86;84.21;96782.56;4975908;28;20209;-67
2021/08/13 06:54:40;;;;;;;19.13;10.02;;;;;;;25.22;84.23;96787.31;4976402;28;20212;-68
2021/08/13 06:57:07;;;;;;;17.23;10.85;;;;;;;25.07;83.06;96786.34;4975741;28;20683;-68
2021/08/13 06:59:33;;;;;;;17.25;9.45;;;;;;;25.25;82.34;96794.88;4975906;28;20207;-67
2021/08/13 07:02:00;;;;;;;14.80;9.40;;;;;;;25.14;83.17;96797.72;4976352;28;20207;-68
2021/08/13 07:04:26;;;;;;;15.07;9.40;;;;;;;25.28;82.54;96789.81;4976322;28;20234;-67
2021/08/13 07:06:53;;;;;;;14.63;9.15;;;;;;;25.08;84.02;96799.56;4974955;28;20238;-67
2021/08/13 07:09:19;;;;;;;14.32;9.10;;;;;;;25.01;82.82;96804.31;4976523;28;20215;-67
2021/08/13 07:11:47;;;;;;;23.80;8.23;;;;;;;24.93;81.79;96796.66;4975878;28;20207;-67
2021/08/13 07:14:13;;;;;;;13.88;8.57;;;;;;;25.14;82.79;96798.56;4975724;28;20231;-67
2021/08/13 07:16:40;;;;;;;15.98;8.20;;;;;;;25.36;81.19;96804.72;4972776;28;20203;-67
2021/08/13 07:19:06;;;;;;;12.88;8.00;;;;;;;25.33;78.50;96800.66;4975298;28;20219;-67
2021/08/13 07:21:34;;;;;;;14.43;8.93;;;;;;;25.50;80.12;96798.66;4975541;28;20199;-67
2021/08/13 07:24:00;;;;;;;16.08;8.77;;;;;;;25.76;79.29;96803.22;4975496;28;20235;-67
2021/08/13 07:26:27;;;;;;;12.30;7.00;;;;;;;25.43;76.48;96808.84;4974707;28;20211;-67
2021/08/13 07:28:54;;;;;;;14.27;7.25;;;;;;;25.74;76.18;96807.25;4975643;28;20218;-67
2021/08/13 07:31:21;;;;;;;12.63;7.07;;;;;;;25.84;75.73;96803.56;4976124;28;20543;-67
2021/08/13 07:33:47;;;;;;;10.85;6.18;;;;;;;25.88;73.97;96807.38;4975207;28;20243;-67
2021/08/13 07:36:14;;;;;;;11.18;6.10;;;;;;;25.93;72.60;96814.72;4974909;28;20207;-67
2021/08/13 07:38:40;;;;;;;11.75;6.10;;;;;;;26.03;73.10;96806.66;4975703;28;20207;-67
2021/08/13 07:41:07;;;;;;;12.73;5.70;;;;;;;26.16;71.91;96809.75;4971958;28;20208;-67
2021/08/13 07:43:34;;;;;;;13.20;5.90;;;;;;;26.08;71.32;96804.84;4975104;28;20226;-67
2021/08/13 07:46:02;;;;;;;11.25;5.55;;;;;;;26.41;71.46;96801.81;4975409;28;20217;-67
2021/08/13 07:48:29;;;;;;;17.35;5.18;;;;;;;26.47;69.43;96806.19;4974716;28;20234;-68
2021/08/13 07:50:55;;;;;;;9.02;4.70;;;;;;;26.36;68.56;96814.50;4975091;28;20215;-67
2021/08/13 07:53:22;;;;;;;11.02;5.00;;;;;;;26.69;67.69;96814.94;4976152;28;20226;-67
2021/08/13 07:55:48;;;;;;;9.30;4.20;;;;;;;26.53;66.13;96813.25;4974585;28;20230;-68
2021/08/13 07:58:15;;;;;;;8.80;3.97;;;;;;;26.66;66.15;96801.97;4975482;28;20202;-68
2021/08/13 08:00:41;;;;;;;10.73;4.95;;;;;;;27.00;66.65;96798.63;4976298;28;20211;-67
2021/08/13 08:03:09;;;;;;;11.07;4.50;;;;;;;26.95;65.67;96808.56;4975095;28;20231;-68
2021/08/13 08:05:36;;;;;;;6.90;4.13;;;;;;;27.10;65.67;96802.16;4974240;28;20207;-68
2021/08/13 08:08:02;;;;;;;10.15;4.28;;;;;;;27.29;65.11;96802.47;4975266;28;20253;-68
2021/08/13 08:10:29;;;;;;;8.68;4.68;;;;;;;27.54;64.56;96805.22;4975845;28;20234;-68
2021/08/13 08:12:55;;;;;;;11.95;5.00;;;;;;;27.38;63.78;96804.41;4974858;28;20656;-68
2021/08/13 08:15:22;;;;;;;12.65;4.70;;;;;;;27.42;63.56;96805.50;4974356;28;20204;-67
2021/08/13 08:17:48;;;;;;;9.18;4.50;;;;;;;27.49;63.81;96806.03;4973622;28;20679;-68
2021/08/13 08:20:16;;;;;;;11.15;4.82;;;;;;;27.51;62.72;96809.28;4974693;28;20214;-67
2021/08/13 08:22:43;;;;;;;14.52;4.43;;;;;;;27.53;64.00;96809.00;4973977;28;20317;-67
2021/08/13 08:25:10;;;;;;;10.73;5.00;;;;;;;27.96;63.56;96803.94;4974491;28;20218;-67
2021/08/13 08:27:37;;;;;;;13.23;4.93;;;;;;;27.61;62.75;96809.34;4973740;28;20382;-67
2021/08/13 08:30:04;;;;;;;11.85;5.05;;;;;;;27.77;63.27;96808.25;4977844;28;20207;-67
2021/08/13 08:32:30;;;;;;;9.50;4.63;;;;;;;27.94;63.01;96804.19;4977346;28;20203;-67
2021/08/13 08:34:57;;;;;;;9.73;4.22;;;;;;;27.76;61.33;96814.75;4977875;28;20211;-67
2021/08/13 08:37:25;;;;;;;8.52;4.50;;;;;;;27.81;61.74;96803.91;4976555;28;20202;-67
2021/08/13 08:39:51;;;;;;;10.15;4.47;;;;;;;27.72;61.61;96805.53;4977277;28;20207;-67
2021/08/13 08:42:21;;;;;;;10.20;4.10;;;;;;;27.85;61.28;96810.41;4973714;28;20687;-67
2021/08/13 08:44:48;;;;;;;8.10;4.75;;;;;;;28.07;62.64;96808.25;4977374;28;20662;-68
2021/08/13 08:47:17;;;;;;;7.90;4.13;;;;;;;28.29;60.39;96814.22;4976674;28;20601;-68
2021/08/13 08:49:44;;;;;;;10.75;5.05;;;;;;;28.33;61.03;96810.69;4977638;28;20221;-67
2021/08/13 08:52:12;;;;;;;10.35;4.70;;;;;;;28.67;61.51;96814.41;4977195;28;20595;-67
2021/08/13 08:54:43;;;;;;;8.23;4.43;;;;;;;28.76;60.45;96818.22;4976658;28;20234;-67
2021/08/13 08:57:09;;;;;;;11.32;4.30;;;;;;;29.01;59.64;96824.34;4976468;28;20591;-67
2021/08/13 08:59:36;;;;;;;8.52;4.70;;;;;;;28.80;59.61;96819.28;4977333;28;20254;-67
2021/08/13 09:02:03;;;;;;;10.10;4.78;;;;;;;28.91;59.01;96818.97;4976997;28;20218;-67
2021/08/13 09:04:29;;;;;;;11.63;4.50;;;;;;;28.81;58.09;96827.13;4976675;28;20523;-67
2021/08/13 09:06:56;;;;;;;9.10;4.10;;;;;;;28.80;59.60;96825.50;4973722;28;20207;-67
2021/08/13 09:09:22;;;;;;;12.98;4.25;;;;;;;29.19;58.21;96829.97;4976509;28;20396;-67
2021/08/13 09:11:51;;;;;;;9.85;4.55;;;;;;;29.27;56.04;96823.13;4976588;28;20212;-67
2021/08/13 09:14:17;;;;;;;8.38;4.00;;;;;;;29.20;56.41;96837.03;4977537;28;20227;-68
2021/08/13 09:17:02;;;;;;;6.65;3.92;;;;;;;29.24;54.95;96837.25;4977671;28;20204;-68
2021/08/13 09:19:43;;;;;;;10.07;4.00;;;;;;;29.46;56.34;96835.03;4977136;28;20211;-67
2021/08/13 09:22:12;;;;;;;9.60;3.67;;;;;;;29.29;54.79;96834.50;4977928;28;20214;-67
2021/08/13 09:24:40;;;;;;;11.15;3.47;;;;;;;29.29;55.44;96827.19;4977272;28;20226;-68
2021/08/13 09:27:20;;;;;;;11.35;4.10;;;;;;;29.86;55.87;96835.53;4976859;28;21259;-67
2021/08/13 09:30:13;;;;;;;7.78;3.95;;;;;;;29.97;55.11;96829.78;4977126;28;20203;-68
2021/08/13 09:32:43;;;;;;;10.10;3.63;;;;;;;29.64;54.59;96835.97;4977439;28;20227;-68
2021/08/13 09:35:10;;;;;;;7.78;4.15;;;;;;;29.62;54.92;96821.88;4977026;28;20710;-68
2021/08/13 09:37:38;;;;;;;9.40;3.83;;;;;;;29.67;55.58;96819.13;4977884;28;20204;-68
2021/08/13 09:40:06;;;;;;;9.13;4.28;;;;;;;29.87;53.80;96826.34;4976096;28;20207;-67
2021/08/13 09:42:36;;;;;;;9.85;3.80;;;;;;;30.48;54.55;96822.81;4977198;28;20209;-67
2021/08/13 09:45:06;;;;;;;10.55;4.20;;;;;;;30.41;53.44;96833.22;4977099;28;20218;-68
2021/08/13 09:47:40;;;;;;;9.52;3.80;;;;;;;30.31;52.14;96839.53;4976520;28;20223;-68
2021/08/13 09:50:08;;;;;;;13.98;3.90;;;;;;;30.08;54.72;96839.50;4976950;28;20206;-68
2021/08/13 09:52:34;;;;;;;7.43;3.95;;;;;;;29.81;53.34;96841.84;4977215;28;20218;-69
2021/08/13 09:55:10;;;;;;;8.27;3.88;;;;;;;29.87;54.32;96843.44;4976785;28;20292;-68
2021/08/13 09:57:44;;;;;;;10.85;4.07;;;;;;;30.09;54.50;96845.72;4976598;28;20196;-68
2021/08/13 10:00:12;;;;;;;6.78;3.85;;;;;;;29.93;54.78;96842.31;4977735;28;20207;-68
2021/08/13 10:02:40;;;;;;;8.68;4.35;;;;;;;30.00;54.49;96850.94;4977127;28;20259;-68
2021/08/13 10:05:17;;;;;;;7.93;4.13;;;;;;;30.19;54.32;96840.22;4976826;28;20199;-68
2021/08/13 10:07:46;;;;;;;14.18;4.57;;;;;;;30.18;53.34;96838.56;4974531;28;20280;-69
2021/08/13 10:10:13;;;;;;;11.75;4.22;;;;;;;30.06;54.31;96840.88;4977089;28;20296;-69
2021/08/13 10:12:44;;;;;;;8.13;4.10;;;;;;;30.02;53.71;96840.63;4976705;28;20223;-69
2021/08/13 10:15:12;;;;;;;10.75;4.05;;;;;;;30.16;54.03;96836.16;4976934;28;20249;-69
2021/08/13 10:17:39;;;;;;;9.85;4.50;;;;;;;30.51;55.53;96838.56;4977568;28;20203;-69
2021/08/13 10:20:06;;;;;;;9.68;4.47;;;;;;;30.65;52.95;96839.50;4976188;28;20615;-69
2021/08/13 10:22:33;;;;;;;10.38;4.03;;;;;;;30.83;52.61;96837.69;4976128;28;20207;-68
2021/08/13 10:25:01;;;;;;;8.95;3.80;;;;;;;30.93;53.61;96834.00;4976825;28;20207;-69
2021/08/13 10:27:27;;;;;;;6.50;4.00;;;;;;;31.29;53.29;96832.50;4975873;28;20223;-69
2021/08/13 10:29:56;;;;;;;8.25;4.00;;;;;;;31.24;53.55;96827.16;4976218;28;20203;-69
2021/08/13 10:32:23;;;;;;;8.93;4.15;;;;;;;30.79;53.06;96829.56;4976600;28;20203;-69
2021/08/13 10:34:49;;;;;;;6.38;3.80;;;;;;;30.80;53.65;96820.31;4976918;28;20215;-68
2021/08/13 10:37:16;;;;;;;11.18;4.40;;;;;;;31.24;53.07;96824.44;4975426;28;20203;-69
2021/08/13 10:39:43;;;;;;;15.93;5.07;;;;;;;31.72;52.77;96810.38;4976770;28;20596;-68
2021/08/13 10:42:16;;;;;;;11.27;4.75;;;;;;;31.72;52.09;96811.22;4976306;28;20203;-69
2021/08/13 10:44:49;;;;;;;9.73;4.43;;;;;;;31.61;52.50;96811.66;4976677;28;20203;-69
2021/08/13 10:47:21;;;;;;;13.88;4.55;;;;;;;31.02;53.11;96808.63;4975301;28;20211;-69
2021/08/13 10:49:50;;;;;;;11.35;4.40;;;;;;;31.40;52.88;96804.81;4976733;28;20222;-69
2021/08/13 10:52:17;;;;;;;10.18;4.20;;;;;;;31.39;53.32;96803.22;4975619;28;20210;-69
2021/08/13 10:54:45;;;;;;;13.30;4.63;;;;;;;31.53;52.63;96804.13;4976112;28;20891;-69
2021/08/13 10:57:13;;;;;;;12.95;4.50;;;;;;;31.73;52.92;96815.53;4975438;28;20913;-69
2021/08/13 10:59:56;;;;;;;12.63;4.45;;;;;;;31.48;52.08;96810.47;4976344;28;20199;-68
2021/08/13 11:02:24;;;;;;;12.50;4.60;;;;;;;31.54;54.77;96808.47;4975751;28;20562;-69
2021/08/13 11:04:52;;;;;;;12.57;4.38;;;;;;;31.58;51.62;96810.34;4975932;28;20211;-69
2021/08/13 11:07:56;;;;;;;8.98;4.35;;;;;;;32.11;53.01;96800.78;4972482;28;20208;-69
2021/08/13 11:10:57;;;;;;;10.70;4.50;;;;;;;31.52;53.26;96797.06;4976110;28;20214;-69
2021/08/13 11:13:24;;;;;;;14.25;4.43;;;;;;;31.06;53.23;96803.38;4975511;28;20278;-69
2021/08/13 11:15:51;;;;;;;13.35;4.80;;;;;;;31.12;54.21;96800.34;4975149;28;21165;-69
2021/08/13 11:18:31;;;;;;;11.13;4.30;;;;;;;32.00;54.32;96799.34;4975381;28;20207;-69
2021/08/13 11:20:58;;;;;;;12.63;4.50;;;;;;;32.01;55.44;96794.69;4976131;28;20207;-69
2021/08/13 11:23:25;;;;;;;14.43;4.18;;;;;;;31.87;52.16;96789.13;4974570;28;20238;-69
2021/08/13 11:25:53;;;;;;;21.33;5.28;;;;;;;32.24;53.18;96784.47;4974539;28;20218;-69